createdAt,value
2019-04-29T00:00:36.238Z,2.03
2019-04-29T00:03:04.677Z,1.33
2019-04-29T00:05:33.146Z,1.47
2019-04-29T00:08:01.277Z,1.60
2019-04-29T00:10:30.113Z,1.60
2019-04-29T00:12:58.518Z,2.03
2019-04-29T00:15:31.454Z,1.70
2019-04-29T00:18:01.269Z,1.73
2019-04-29T00:20:36.898Z,2.23
2019-04-29T00:23:05.307Z,1.70
2019-04-29T00:25:33.517Z,2.00
2019-04-29T00:28:01.666Z,1.77
2019-04-29T00:30:29.804Z,1.80
2019-04-29T00:32:58.186Z,1.90
2019-04-29T00:35:26.601Z,1.93
2019-04-29T00:37:59.149Z,1.67
2019-04-29T00:40:44.292Z,2.07
2019-04-29T00:43:29.281Z,2.17
2019-04-29T00:45:57.464Z,2.13
2019-04-29T00:48:25.585Z,2.33
2019-04-29T00:50:53.771Z,2.57
2019-04-29T00:53:21.946Z,2.77
2019-04-29T00:55:51.512Z,2.23
2019-04-29T00:58:19.652Z,2.03
2019-04-29T01:00:48.057Z,2.17
2019-04-29T01:03:16.268Z,2.23
2019-04-29T01:05:44.440Z,2.10
2019-04-29T01:08:12.607Z,2.03
2019-04-29T01:10:41.194Z,2.60
2019-04-29T01:13:09.662Z,2.03
2019-04-29T01:15:38.059Z,2.13
2019-04-29T01:18:06.442Z,2.80
2019-04-29T01:20:34.601Z,2.27
2019-04-29T01:23:02.725Z,2.50
2019-04-29T01:25:30.874Z,2.80
2019-04-29T01:28:09.654Z,2.87
2019-04-29T01:30:39.328Z,2.10
2019-04-29T01:33:07.751Z,2.20
2019-04-29T01:35:36.160Z,2.57
2019-04-29T01:38:04.277Z,2.27
2019-04-29T01:40:50.863Z,2.50
2019-04-29T01:43:19.099Z,2.60
2019-04-29T01:45:47.273Z,2.57
2019-04-29T01:48:15.397Z,2.40
2019-04-29T01:50:43.781Z,2.40
2019-04-29T01:53:11.964Z,2.60
2019-04-29T01:55:40.143Z,2.60
2019-04-29T01:58:08.277Z,2.97
2019-04-29T02:00:36.409Z,2.50
2019-04-29T02:03:04.567Z,2.27
2019-04-29T02:05:32.715Z,2.30
2019-04-29T02:08:00.865Z,3.13
2019-04-29T02:10:30.647Z,2.50
2019-04-29T02:12:59.035Z,2.60
2019-04-29T02:15:27.165Z,1.90
2019-04-29T02:17:55.311Z,2.80
2019-04-29T02:20:23.710Z,2.33
2019-04-29T02:22:53.770Z,2.33
2019-04-29T02:25:23.798Z,2.47
2019-04-29T02:27:52.023Z,2.47
2019-04-29T02:30:27.749Z,2.20
2019-04-29T02:32:55.891Z,2.90
2019-04-29T02:35:24.064Z,1.93
2019-04-29T02:37:52.198Z,2.53
2019-04-29T02:40:28.173Z,2.33
2019-04-29T02:42:58.639Z,2.77
2019-04-29T02:45:28.719Z,2.80
2019-04-29T02:47:56.892Z,3.10
2019-04-29T02:50:25.027Z,2.50
2019-04-29T02:52:53.183Z,2.83
2019-04-29T02:55:23.217Z,3.37
2019-04-29T02:57:53.370Z,3.20
2019-04-29T03:00:39.784Z,3.10
2019-04-29T03:03:15.397Z,2.60
2019-04-29T03:05:45.176Z,3.37
2019-04-29T03:08:13.406Z,4.00
2019-04-29T03:10:41.572Z,3.57
2019-04-29T03:13:09.730Z,3.57
2019-04-29T03:15:39.612Z,3.10
2019-04-29T03:18:07.851Z,2.70
2019-04-29T03:20:40.489Z,2.57
2019-04-29T03:23:10.319Z,3.37
2019-04-29T03:25:38.521Z,3.30
2019-04-29T03:28:06.931Z,3.57
2019-04-29T03:30:35.079Z,2.80
2019-04-29T03:33:03.839Z,3.17
2019-04-29T03:35:32.074Z,2.53
2019-04-29T03:38:00.471Z,3.40
2019-04-29T03:40:28.625Z,3.23
2019-04-29T03:42:56.765Z,3.87
2019-04-29T03:45:24.906Z,3.60
2019-04-29T03:47:53.331Z,2.90
2019-04-29T03:50:21.459Z,3.50
2019-04-29T03:52:49.601Z,3.50
2019-04-29T03:55:17.751Z,4.17
2019-04-29T03:57:45.983Z,2.70
2019-04-29T04:00:16.357Z,4.20
2019-04-29T04:02:46.126Z,3.80
2019-04-29T04:05:25.642Z,3.87
2019-04-29T04:07:59.655Z,4.47
2019-04-29T04:10:27.767Z,4.12
2019-04-29T04:12:56.633Z,5.07
2019-04-29T04:15:35.634Z,4.00
2019-04-29T04:18:09.130Z,4.60
2019-04-29T04:20:37.956Z,4.40
2019-04-29T04:23:07.972Z,3.47
2019-04-29T04:25:36.868Z,3.60
2019-04-29T04:28:06.417Z,3.73
2019-04-29T04:30:35.224Z,4.03
2019-04-29T04:33:08.094Z,4.30
2019-04-29T04:35:39.690Z,4.60
2019-04-29T04:38:08.307Z,4.50
2019-04-29T04:40:38.507Z,4.78
2019-04-29T04:43:07.380Z,3.80
2019-04-29T04:45:36.234Z,4.40
2019-04-29T04:48:04.750Z,5.10
2019-04-29T04:50:34.163Z,4.70
2019-04-29T04:53:03.833Z,3.77
2019-04-29T04:55:38.568Z,4.20
2019-04-29T04:58:10.873Z,3.77
2019-04-29T05:00:40.871Z,5.00
2019-04-29T05:03:11.776Z,4.37
2019-04-29T05:05:45.554Z,4.53
2019-04-29T05:08:14.917Z,4.03
2019-04-29T05:10:43.588Z,5.10
2019-04-29T05:13:12.423Z,3.87
2019-04-29T05:15:44.906Z,3.70
2019-04-29T05:18:16.202Z,3.60
2019-04-29T05:20:44.977Z,3.57
2019-04-29T05:23:13.524Z,4.40
2019-04-29T05:25:45.733Z,3.43
2019-04-29T05:28:21.708Z,5.13
2019-04-29T05:30:55.710Z,3.50
2019-04-29T05:33:23.137Z,3.80
2019-04-29T05:36:03.802Z,4.03
2019-04-29T05:38:43.514Z,4.07
2019-04-29T05:41:13.491Z,3.40
2019-04-29T05:43:46.928Z,3.87
2019-04-29T05:46:44.732Z,4.57
2019-04-29T05:49:19.049Z,4.23
2019-04-29T05:51:57.488Z,3.37
2019-04-29T05:54:31.563Z,3.97
2019-04-29T05:56:55.910Z,4.30
2019-04-29T05:59:29.279Z,4.67
2019-04-29T06:01:59.846Z,3.50
2019-04-29T06:04:28.755Z,4.00
2019-04-29T06:06:58.281Z,3.67
2019-04-29T06:09:27.638Z,3.67
2019-04-29T06:12:04.549Z,3.50
2019-04-29T06:14:35.397Z,3.20
2019-04-29T06:17:09.386Z,4.27
2019-04-29T06:19:45.073Z,4.23
2019-04-29T06:22:21.003Z,3.40
2019-04-29T06:24:57.127Z,3.60
2019-04-29T06:27:33.273Z,3.03
2019-04-29T06:30:03.160Z,3.80
2019-04-29T06:32:31.591Z,3.33
2019-04-29T06:35:02.315Z,3.47
2019-04-29T06:37:34.301Z,4.03
2019-04-29T06:40:03.207Z,4.47
2019-04-29T06:42:33.526Z,4.33
2019-04-29T06:45:03.446Z,4.07
2019-04-29T06:47:32.227Z,3.90
2019-04-29T06:50:02.071Z,4.80
2019-04-29T06:52:30.860Z,3.93
2019-04-29T06:54:59.799Z,4.20
2019-04-29T06:57:28.952Z,4.23
2019-04-29T06:59:57.944Z,3.60
2019-04-29T07:02:26.836Z,3.57
2019-04-29T07:04:55.695Z,3.70
2019-04-29T07:07:24.583Z,3.83
2019-04-29T07:09:56.660Z,3.47
2019-04-29T07:12:28.407Z,4.37
2019-04-29T07:14:57.163Z,4.67
2019-04-29T07:17:27.352Z,3.77
2019-04-29T07:19:57.566Z,3.60
2019-04-29T07:22:27.569Z,3.57
2019-04-29T07:25:01.265Z,4.40
2019-04-29T07:27:34.847Z,3.90
2019-04-29T07:30:01.715Z,3.83
2019-04-29T07:32:35.415Z,3.87
2019-04-29T07:35:05.862Z,4.00
2019-04-29T07:37:35.867Z,4.83
2019-04-29T07:40:08.077Z,4.30
2019-04-29T07:42:36.292Z,5.20
2019-04-29T07:45:13.671Z,4.23
2019-04-29T07:47:55.817Z,4.50
2019-04-29T07:50:15.159Z,5.00
2019-04-29T07:52:45.685Z,3.73
2019-04-29T07:55:14.836Z,3.50
2019-04-29T07:57:43.561Z,3.87
2019-04-29T08:00:21.456Z,3.60
2019-04-29T08:02:50.454Z,3.97
2019-04-29T08:05:19.447Z,4.40
2019-04-29T08:07:54.994Z,4.73
2019-04-29T08:10:27.697Z,3.77
2019-04-29T08:12:54.121Z,3.90
2019-04-29T08:15:23.115Z,4.03
2019-04-29T08:18:05.737Z,4.73
2019-04-29T08:20:22.414Z,4.60
2019-04-29T08:22:51.206Z,4.90
2019-04-29T08:25:21.829Z,4.63
2019-04-29T08:27:50.527Z,5.27
2019-04-29T08:30:19.327Z,4.47
2019-04-29T08:32:48.297Z,4.70
2019-04-29T08:35:17.255Z,4.30
2019-04-29T08:37:46.000Z,5.07
2019-04-29T08:40:16.805Z,4.70
2019-04-29T08:42:46.978Z,4.77
2019-04-29T08:45:29.966Z,4.17
2019-04-29T08:48:00.681Z,4.53
2019-04-29T08:50:29.168Z,5.43
2019-04-29T08:52:58.133Z,4.93
2019-04-29T08:55:30.838Z,4.50
2019-04-29T08:58:06.915Z,5.40
2019-04-29T09:00:36.172Z,4.60
2019-04-29T09:03:05.043Z,5.53
2019-04-29T09:05:33.797Z,6.10
2019-04-29T09:08:03.007Z,5.70
2019-04-29T09:10:32.967Z,6.20
2019-04-29T09:13:02.035Z,6.10
2019-04-29T09:15:30.705Z,5.60
2019-04-29T09:17:59.683Z,5.60
2019-04-29T09:20:30.998Z,5.27
2019-04-29T09:23:01.281Z,6.00
2019-04-29T09:25:31.706Z,6.60
2019-04-29T09:28:14.939Z,6.57
2019-04-29T09:30:41.099Z,5.40
2019-04-29T09:33:13.218Z,5.53
2019-04-29T09:35:40.667Z,5.47
2019-04-29T09:38:09.843Z,5.17
2019-04-29T09:40:40.303Z,5.23
2019-04-29T09:43:27.115Z,5.93
2019-04-29T09:46:09.110Z,6.43
2019-04-29T09:48:38.310Z,5.70
2019-04-29T09:51:17.405Z,7.70
2019-04-29T09:53:37.255Z,7.37
2019-04-29T09:56:06.040Z,7.30
2019-04-29T09:58:34.835Z,9.50
2019-04-29T10:01:13.940Z,10.10
2019-04-29T10:03:57.106Z,8.10
2019-04-29T10:06:29.647Z,8.37
2019-04-29T10:08:57.910Z,8.63
2019-04-29T10:11:26.429Z,7.70
2019-04-29T10:13:54.570Z,8.43
2019-04-29T10:16:24.647Z,7.77
2019-04-29T10:19:09.567Z,8.80
2019-04-29T10:21:37.714Z,7.60
2019-04-29T10:24:06.445Z,8.10
2019-04-29T10:26:34.587Z,6.37
2019-04-29T10:29:04.412Z,7.93
2019-04-29T10:31:32.547Z,7.37
2019-04-29T10:34:00.805Z,7.60
2019-04-29T10:36:29.282Z,7.00
2019-04-29T10:38:59.128Z,5.87
2019-04-29T10:41:29.475Z,5.30
2019-04-29T10:44:15.652Z,5.10
2019-04-29T10:46:45.742Z,4.20
2019-04-29T10:49:21.509Z,5.70
2019-04-29T10:51:49.894Z,5.07
2019-04-29T10:54:18.295Z,5.83
2019-04-29T10:56:46.632Z,6.40
2019-04-29T10:59:14.971Z,6.07
2019-04-29T11:02:20.044Z,6.10
2019-04-29T11:04:52.913Z,7.43
2019-04-29T11:07:35.148Z,7.40
2019-04-29T11:10:25.576Z,6.53
2019-04-29T11:12:54.259Z,6.53
2019-04-29T11:15:24.367Z,5.50
2019-04-29T11:17:59.318Z,7.83
2019-04-29T11:20:23.253Z,7.23
2019-04-29T11:22:59.406Z,7.27
2019-04-29T11:25:40.459Z,7.63
2019-04-29T11:28:12.113Z,6.97
2019-04-29T11:30:39.379Z,5.67
2019-04-29T11:33:26.418Z,5.23
2019-04-29T11:35:59.116Z,6.13
2019-04-29T11:38:28.631Z,5.47
2019-04-29T11:40:56.612Z,6.10
2019-04-29T11:43:25.007Z,6.73
2019-04-29T11:45:54.243Z,6.17
2019-04-29T11:48:22.470Z,5.10
2019-04-29T11:50:54.951Z,5.70
2019-04-29T11:53:22.185Z,6.07
2019-04-29T11:55:52.574Z,6.20
2019-04-29T11:58:37.787Z,4.57
2019-04-29T12:01:13.740Z,5.00
2019-04-29T12:03:51.361Z,4.27
2019-04-29T12:06:20.815Z,3.30
2019-04-29T12:08:53.167Z,4.03
2019-04-29T12:11:20.111Z,4.50
2019-04-29T12:14:02.961Z,4.10
2019-04-29T12:16:36.685Z,3.33
2019-04-29T12:19:12.251Z,3.17
2019-04-29T12:21:42.676Z,3.03
2019-04-29T12:24:11.189Z,2.87
2019-04-29T12:26:42.854Z,2.67
2019-04-29T12:29:09.211Z,2.80
2019-04-29T12:31:44.819Z,2.40
2019-04-29T12:34:14.347Z,2.07
2019-04-29T12:36:55.100Z,3.20
2019-04-29T12:39:42.337Z,2.30
2019-04-29T12:42:12.314Z,2.80
2019-04-29T12:44:44.592Z,3.30
2019-04-29T12:47:26.214Z,3.60
2019-04-29T12:49:46.859Z,3.63
2019-04-29T12:52:16.412Z,3.37
2019-04-29T12:54:46.102Z,3.77
2019-04-29T12:57:14.435Z,3.67
2019-04-29T12:59:42.566Z,3.57
2019-04-29T13:02:26.207Z,5.07
2019-04-29T13:05:01.959Z,4.47
2019-04-29T13:07:31.782Z,4.50
2019-04-29T13:10:18.207Z,4.63
2019-04-29T13:12:46.486Z,4.97
2019-04-29T13:15:25.294Z,4.50
2019-04-29T13:18:08.351Z,4.50
2019-04-29T13:20:33.867Z,4.10
2019-04-29T13:23:17.077Z,4.00
2019-04-29T13:25:32.129Z,3.60
2019-04-29T13:28:03.867Z,4.27
2019-04-29T13:30:30.189Z,3.70
2019-04-29T13:33:01.194Z,4.10
2019-04-29T13:35:28.706Z,4.10
2019-04-29T13:37:57.222Z,4.87
2019-04-29T13:40:25.590Z,3.83
2019-04-29T13:42:53.780Z,4.83
2019-04-29T13:45:26.605Z,4.27
2019-04-29T13:47:56.682Z,3.77
2019-04-29T13:50:39.913Z,4.10
2019-04-29T13:53:05.411Z,3.90
2019-04-29T13:55:47.677Z,5.30
2019-04-29T13:58:03.573Z,4.50
2019-04-29T14:00:36.244Z,3.90
2019-04-29T14:03:11.762Z,3.87
2019-04-29T14:05:41.781Z,3.77
2019-04-29T14:08:10.359Z,3.57
2019-04-29T14:10:38.729Z,3.40
2019-04-29T14:13:15.228Z,5.13
2019-04-29T14:15:40.389Z,4.77
2019-04-29T14:18:11.740Z,4.17
2019-04-29T14:20:37.184Z,3.67
2019-04-29T14:23:05.438Z,4.07
2019-04-29T14:25:33.600Z,3.37
2019-04-29T14:28:01.792Z,3.90
2019-04-29T14:30:38.640Z,3.53
2019-04-29T14:33:02.036Z,3.67
2019-04-29T14:35:48.386Z,3.40
2019-04-29T14:38:13.934Z,4.10
2019-04-29T14:40:42.805Z,3.40
2019-04-29T14:43:26.835Z,4.37
2019-04-29T14:46:00.190Z,3.70
2019-04-29T14:48:42.661Z,3.33
2019-04-29T14:51:06.273Z,3.70
2019-04-29T14:53:34.574Z,4.23
2019-04-29T14:56:02.780Z,4.00
2019-04-29T14:58:31.008Z,3.67
2019-04-29T15:01:01.256Z,3.70
2019-04-29T15:03:48.635Z,3.93
2019-04-29T15:06:16.784Z,4.37
2019-04-29T15:08:45.487Z,3.50
2019-04-29T15:11:13.682Z,4.80
2019-04-29T15:13:43.155Z,4.17
2019-04-29T15:16:15.424Z,4.07
2019-04-29T15:18:49.564Z,5.10
2019-04-29T15:21:31.620Z,4.20
2019-04-29T15:23:49.759Z,4.97
2019-04-29T15:26:20.386Z,3.70
2019-04-29T15:28:50.538Z,3.77
2019-04-29T15:31:19.888Z,2.90
2019-04-29T15:33:48.158Z,3.87
2019-04-29T15:36:16.288Z,3.93
2019-04-29T15:38:47.226Z,4.10
2019-04-29T15:41:14.379Z,3.37
2019-04-29T15:43:47.724Z,3.50
2019-04-29T15:46:13.126Z,4.00
2019-04-29T15:48:41.639Z,3.93
2019-04-29T15:51:13.908Z,3.87
2019-04-29T15:53:39.971Z,3.83
2019-04-29T15:56:27.185Z,3.37
2019-04-29T15:58:38.544Z,4.10
2019-04-29T16:01:14.809Z,4.50
2019-04-29T16:03:38.004Z,4.97
2019-04-29T17:50:13.542Z,8.37
2019-04-29T17:52:41.702Z,7.80
2019-04-29T17:55:11.562Z,8.10
2019-04-29T17:57:50.343Z,8.83
2019-04-29T18:00:26.169Z,8.80
2019-04-29T18:03:00.897Z,7.50
2019-04-29T18:05:34.523Z,9.43
2019-04-29T18:08:11.846Z,9.97
2019-04-29T18:10:41.722Z,7.83
2019-04-29T18:13:12.418Z,9.30
2019-04-29T18:15:57.861Z,8.87
2019-04-29T18:18:17.391Z,8.50
2019-04-29T18:21:03.078Z,8.97
2019-04-29T18:23:32.768Z,9.17
2019-04-29T18:26:02.626Z,8.20
2019-04-29T18:28:30.814Z,7.60
2019-04-29T18:30:58.952Z,8.77
2019-04-29T18:33:30.176Z,8.57
2019-04-29T18:36:04.159Z,7.67
2019-04-29T18:38:26.899Z,8.57
2019-04-29T18:40:55.826Z,7.63
2019-04-29T18:43:26.439Z,9.13
2019-04-29T18:45:58.357Z,8.03
2019-04-29T18:48:26.856Z,8.07
2019-04-29T18:50:56.841Z,7.80
2019-04-29T18:53:25.507Z,7.77
2019-04-29T18:55:55.027Z,7.90
2019-04-29T18:58:24.953Z,8.17
2019-04-29T19:00:56.098Z,7.77
2019-04-29T19:03:41.514Z,8.40
2019-04-29T19:06:11.232Z,8.20
2019-04-29T19:08:39.524Z,8.30
2019-04-29T19:11:07.667Z,9.77
2019-04-29T19:13:36.337Z,8.10
2019-04-29T19:16:10.320Z,9.00
2019-04-29T19:18:34.548Z,8.03
2019-04-29T19:21:02.944Z,8.50
2019-04-29T19:23:31.394Z,8.47
2019-04-29T19:25:59.542Z,9.67
2019-04-29T19:28:30.908Z,10.00
2019-04-29T19:31:03.219Z,9.40
2019-04-29T19:33:30.731Z,8.63
2019-04-29T19:35:57.613Z,10.20
2019-04-29T19:38:25.961Z,9.57
2019-04-29T19:40:54.076Z,9.03
2019-04-29T19:43:22.166Z,8.90
2019-04-29T19:45:50.597Z,9.23
2019-04-29T19:48:22.558Z,9.20
2019-04-29T19:50:51.669Z,11.13
2019-04-29T19:53:18.729Z,9.17
2019-04-29T19:55:46.907Z,9.07
2019-04-29T19:58:15.510Z,9.57
2019-04-29T20:00:46.957Z,8.73
2019-04-29T20:03:21.183Z,8.60
2019-04-29T20:05:46.459Z,8.80
2019-04-29T20:08:37.711Z,7.77
2019-04-29T20:10:49.641Z,8.30
2019-04-29T20:13:15.510Z,7.90
2019-04-29T20:15:46.302Z,7.77
2019-04-29T20:18:26.196Z,8.90
2019-04-29T20:21:09.113Z,8.67
2019-04-29T20:23:36.995Z,8.83
2019-04-29T20:26:14.011Z,8.63
2019-04-29T20:28:33.037Z,8.53
2019-04-29T20:31:15.312Z,8.33
2019-04-29T20:33:31.723Z,9.03
2019-04-29T20:36:02.367Z,9.03
2019-04-29T20:38:34.129Z,8.50
2019-04-29T20:40:59.971Z,9.53
2019-04-29T20:43:29.771Z,10.03
2019-04-29T20:46:02.402Z,8.90
2019-04-29T20:48:28.521Z,9.10
2019-04-29T20:51:05.131Z,10.77
2019-04-29T20:53:30.909Z,8.27
2019-04-29T20:56:09.484Z,9.17
2019-04-29T20:58:32.754Z,7.50
2019-04-29T21:01:03.054Z,8.20
2019-04-29T21:03:32.098Z,8.30
2019-04-29T21:06:02.531Z,8.10
2019-04-29T21:08:29.296Z,8.77
2019-04-29T21:10:59.096Z,8.67
2019-04-29T21:13:29.137Z,8.67
2019-04-29T21:15:59.686Z,8.47
2019-04-29T21:18:27.993Z,7.50
2019-04-29T21:20:59.709Z,7.90
2019-04-29T21:23:31.558Z,7.33
2019-04-29T21:26:00.501Z,8.77
2019-04-29T21:28:26.331Z,8.60
2019-04-29T21:30:55.123Z,7.47
2019-04-29T21:33:23.318Z,8.70
2019-04-29T21:35:57.931Z,7.20
2019-04-29T21:38:28.322Z,6.83
2019-04-29T21:40:58.349Z,6.53
2019-04-29T21:43:28.130Z,6.83
2019-04-29T21:45:59.196Z,7.33
2019-04-29T21:48:33.481Z,6.90
2019-04-29T21:50:56.068Z,6.87
2019-04-29T21:53:25.222Z,7.90
2019-04-29T21:55:55.339Z,7.70
2019-04-29T21:58:23.638Z,7.00
2019-04-29T22:00:55.929Z,7.17
2019-04-29T22:03:24.568Z,7.60
2019-04-29T22:05:53.477Z,7.80
2019-04-29T22:08:27.193Z,8.23
2019-04-29T22:10:52.069Z,8.40
2019-04-29T22:13:20.261Z,8.23
2019-04-29T22:15:48.419Z,8.10
2019-04-29T22:18:18.071Z,7.93
2019-04-29T22:20:46.399Z,7.00
2019-04-29T22:23:17.117Z,7.40
2019-04-29T22:25:45.645Z,8.10
2019-04-29T22:28:15.950Z,8.57
2019-04-29T22:30:45.274Z,8.87
2019-04-29T22:33:15.261Z,8.27
2019-04-29T22:35:45.254Z,8.43
2019-04-29T22:38:16.277Z,8.17
2019-04-29T22:40:45.178Z,8.40
2019-04-29T22:43:21.249Z,8.00
2019-04-29T22:45:49.451Z,9.17
2019-04-29T22:48:19.822Z,8.60
2019-04-29T22:50:47.496Z,8.00
2019-04-29T22:53:15.678Z,9.50
2019-04-29T22:55:45.208Z,8.73
2019-04-29T22:58:15.086Z,9.27
2019-04-29T23:00:43.471Z,9.97
2019-04-29T23:03:11.658Z,8.43
2019-04-29T23:05:40.169Z,7.50
2019-04-29T23:08:08.356Z,9.40
2019-04-29T23:10:36.486Z,8.70
2019-04-29T23:13:06.276Z,8.13
2019-04-29T23:15:35.730Z,7.93
2019-04-29T23:18:05.145Z,7.60
2019-04-29T23:20:37.921Z,7.50
2019-04-29T23:23:10.431Z,7.83
2019-04-29T23:25:43.125Z,7.00
2019-04-29T23:28:11.373Z,8.80
2019-04-29T23:30:39.565Z,8.43
2019-04-29T23:33:07.768Z,6.80
2019-04-29T23:35:39.746Z,6.63
2019-04-29T23:38:09.290Z,8.00
2019-04-29T23:40:35.661Z,7.23
2019-04-29T23:43:06.036Z,6.97
2019-04-29T23:45:35.096Z,7.50
2019-04-29T23:48:05.511Z,7.60
2019-04-29T23:50:35.791Z,8.67
2019-04-29T23:53:03.465Z,8.20
2019-04-29T23:55:31.630Z,7.70
2019-04-29T23:58:19.625Z,8.30
